sensor_id;sensor_type;location;lat;lon;timestamp;pressure;altitude;pressure_sealevel;temperature;humidity
15971;BME280;59785;52.582;13.892;2022-11-21T00:01:20;99780.16;;;-3.87;100.00
15971;BME280;59785;52.582;13.892;2022-11-21T00:03:47;99780.84;;;-3.84;100.00
15971;BME280;59785;52.582;13.892;2022-11-21T00:06:14;99772.41;;;-3.73;100.00
15971;BME280;59785;52.582;13.892;2022-11-21T00:08:40;99760.06;;;-3.71;100.00
15971;BME280;59785;52.582;13.892;2022-11-21T00:11:06;99771.19;;;-3.67;100.00
15971;BME280;59785;52.582;13.892;2022-11-21T00:13:32;99762.72;;;-3.57;100.00
15971;BME280;59785;52.582;13.892;2022-11-21T00:16:03;99753.19;;;-3.58;100.00
15971;BME280;59785;52.582;13.892;2022-11-21T00:18:30;99750.38;;;-3.54;100.00
15971;BME280;59785;52.582;13.892;2022-11-21T00:20:56;99748.19;;;-3.46;100.00
15971;BME280;59785;52.582;13.892;2022-11-21T00:23:22;99743.81;;;-3.31;100.00
15971;BME280;59785;52.582;13.892;2022-11-21T00:25:50;99742.31;;;-3.21;100.00
15971;BME280;59785;52.582;13.892;2022-11-21T00:28:17;99736.91;;;-3.18;100.00
15971;BME280;59785;52.582;13.892;2022-11-21T00:30:43;99737.31;;;-3.10;100.00
15971;BME280;59785;52.582;13.892;2022-11-21T00:33:09;99728.22;;;-3.04;100.00
15971;BME280;59785;52.582;13.892;2022-11-21T00:35:35;99731.59;;;-3.02;100.00
15971;BME280;59785;52.582;13.892;2022-11-21T00:38:01;99735.72;;;-2.98;100.00
15971;BME280;59785;52.582;13.892;2022-11-21T00:40:27;99736.75;;;-2.86;100.00
15971;BME280;59785;52.582;13.892;2022-11-21T00:42:53;99735.91;;;-2.72;100.00
15971;BME280;59785;52.582;13.892;2022-11-21T00:45:19;99726.34;;;-2.59;100.00
15971;BME280;59785;52.582;13.892;2022-11-21T00:47:49;99726.44;;;-2.46;100.00
15971;BME280;59785;52.582;13.892;2022-11-21T00:50:15;99723.91;;;-2.33;100.00
15971;BME280;59785;52.582;13.892;2022-11-21T05:04:01;99627.03;;;-1.44;100.00
15971;BME280;59785;52.582;13.892;2022-11-21T05:06:27;99623.34;;;-1.41;100.00
15971;BME280;59785;52.582;13.892;2022-11-21T05:08:53;99634.88;;;-1.31;100.00
15971;BME280;59785;52.582;13.892;2022-11-21T05:11:19;99631.84;;;-1.25;100.00
15971;BME280;59785;52.582;13.892;2022-11-21T05:14:04;99637.22;;;-1.26;100.00
15971;BME280;59785;52.582;13.892;2022-11-21T05:16:33;99635.97;;;-1.21;100.00
15971;BME280;59785;52.582;13.892;2022-11-21T05:18:59;99635.41;;;-1.13;100.00
15971;BME280;59785;52.582;13.892;2022-11-21T05:21:26;99631.41;;;-1.06;100.00
15971;BME280;59785;52.582;13.892;2022-11-21T05:23:52;99624.53;;;-0.95;100.00
15971;BME280;59785;52.582;13.892;2022-11-21T05:26:18;99626.63;;;-0.88;100.00
15971;BME280;59785;52.582;13.892;2022-11-21T05:28:44;99625.88;;;-0.77;100.00
15971;BME280;59785;52.582;13.892;2022-11-21T05:31:12;99627.56;;;-0.76;99.88
15971;BME280;59785;52.582;13.892;2022-11-21T05:33:38;99628.53;;;-0.77;99.40
15971;BME280;59785;52.582;13.892;2022-11-21T05:36:04;99624.44;;;-0.94;98.92
15971;BME280;59785;52.582;13.892;2022-11-21T05:38:30;99625.94;;;-1.03;98.62
15971;BME280;59785;52.582;13.892;2022-11-21T05:40:57;99618.88;;;-1.02;98.91
15971;BME280;59785;52.582;13.892;2022-11-21T05:43:23;99622.25;;;-1.00;99.52
15971;BME280;59785;52.582;13.892;2022-11-21T05:46:07;99623.41;;;-0.91;99.89
15971;BME280;59785;52.582;13.892;2022-11-21T05:48:33;99618.22;;;-0.80;99.61
15971;BME280;59785;52.582;13.892;2022-11-21T05:51:02;99623.06;;;-0.87;99.30
15971;BME280;59785;52.582;13.892;2022-11-21T05:53:29;99625.19;;;-0.92;98.79
15971;BME280;59785;52.582;13.892;2022-11-21T05:55:55;99621.81;;;-0.94;98.99
15971;BME280;59785;52.582;13.892;2022-11-21T05:58:21;99624.03;;;-1.01;99.27
15971;BME280;59785;52.582;13.892;2022-11-21T06:00:47;99621.19;;;-0.97;99.15
15971;BME280;59785;52.582;13.892;2022-11-21T06:03:13;99614.91;;;-1.08;99.24
15971;BME280;59785;52.582;13.892;2022-11-21T06:05:59;99613.84;;;-1.05;99.23
15971;BME280;59785;52.582;13.892;2022-11-21T06:08:30;99624.47;;;-1.07;99.50
15971;BME280;59785;52.582;13.892;2022-11-21T06:10:56;99617.00;;;-1.13;99.69
15971;BME280;59785;52.582;13.892;2022-11-21T06:13:23;99615.97;;;-1.10;100.00
15971;BME280;59785;52.582;13.892;2022-11-21T06:16:04;99616.78;;;-1.10;100.00
15971;BME280;59785;52.582;13.892;2022-11-21T06:18:33;99622.88;;;-1.09;100.00
15971;BME280;59785;52.582;13.892;2022-11-21T06:21:04;99619.09;;;-1.05;100.00
15971;BME280;59785;52.582;13.892;2022-11-21T06:23:30;99633.19;;;-0.93;99.72
15971;BME280;59785;52.582;13.892;2022-11-21T06:25:58;99633.78;;;-0.77;98.70
15971;BME280;59785;52.582;13.892;2022-11-21T06:28:26;99633.56;;;-0.74;97.67
15971;BME280;59785;52.582;13.892;2022-11-21T06:30:52;99629.41;;;-0.89;97.75
15971;BME280;59785;52.582;13.892;2022-11-21T06:33:18;99633.50;;;-0.98;98.43
15971;BME280;59785;52.582;13.892;2022-11-21T06:35:45;99631.84;;;-1.12;98.61
15971;BME280;59785;52.582;13.892;2022-11-21T06:38:11;99628.78;;;-1.31;99.75
15971;BME280;59785;52.582;13.892;2022-11-21T06:40:41;99632.78;;;-1.26;100.00
15971;BME280;59785;52.582;13.892;2022-11-21T06:43:07;99629.94;;;-1.23;100.00
15971;BME280;59785;52.582;13.892;2022-11-21T06:45:33;99633.63;;;-1.12;100.00
15971;BME280;59785;52.582;13.892;2022-11-21T06:48:02;99638.78;;;-1.24;100.00
15971;BME280;59785;52.582;13.892;2022-11-21T06:50:29;99640.56;;;-1.37;100.00
15971;BME280;59785;52.582;13.892;2022-11-21T06:52:57;99648.66;;;-1.27;100.00
15971;BME280;59785;52.582;13.892;2022-11-21T06:55:24;99642.97;;;-1.21;100.00
15971;BME280;59785;52.582;13.892;2022-11-21T06:57:55;99653.06;;;-1.15;100.00
15971;BME280;59785;52.582;13.892;2022-11-21T07:00:21;99648.25;;;-1.08;100.00
15971;BME280;59785;52.582;13.892;2022-11-21T07:02:49;99650.88;;;-1.08;100.00
15971;BME280;59785;52.582;13.892;2022-11-21T07:05:15;99650.88;;;-1.08;100.00
15971;BME280;59785;52.582;13.892;2022-11-21T07:07:42;99649.50;;;-1.01;100.00
15971;BME280;59785;52.582;13.892;2022-11-21T07:10:08;99640.31;;;-0.95;100.00
15971;BME280;59785;52.582;13.892;2022-11-21T07:12:35;99643.28;;;-1.00;100.00
15971;BME280;59785;52.582;13.892;2022-11-21T07:15:19;99642.97;;;-1.21;100.00
15971;BME280;59785;52.582;13.892;2022-11-21T07:17:45;99659.50;;;-1.32;100.00
15971;BME280;59785;52.582;13.892;2022-11-21T07:20:12;99660.31;;;-1.44;100.00
15971;BME280;59785;52.582;13.892;2022-11-21T07:22:38;99665.16;;;-1.51;100.00
15971;BME280;59785;52.582;13.892;2022-11-21T07:25:05;99659.47;;;-1.45;100.00
15971;BME280;59785;52.582;13.892;2022-11-21T07:27:31;99667.81;;;-1.38;100.00
15971;BME280;59785;52.582;13.892;2022-11-21T07:29:57;99674.63;;;-1.35;100.00
15971;BME280;59785;52.582;13.892;2022-11-21T07:32:24;99671.25;;;-1.37;100.00
15971;BME280;59785;52.582;13.892;2022-11-21T07:34:50;99676.53;;;-1.37;100.00
15971;BME280;59785;52.582;13.892;2022-11-21T07:37:16;99682.19;;;-1.31;100.00
15971;BME280;59785;52.582;13.892;2022-11-21T07:39:42;99684.41;;;-1.25;100.00
15971;BME280;59785;52.582;13.892;2022-11-21T07:42:09;99677.34;;;-1.37;100.00
15971;BME280;59785;52.582;13.892;2022-11-21T07:44:35;99677.03;;;-1.45;100.00
15971;BME280;59785;52.582;13.892;2022-11-21T07:47:01;99678.50;;;-1.41;100.00
15971;BME280;59785;52.582;13.892;2022-11-21T07:49:27;99677.66;;;-1.29;100.00
15971;BME280;59785;52.582;13.892;2022-11-21T07:51:53;99684.91;;;-1.32;100.00
15971;BME280;59785;52.582;13.892;2022-11-21T07:54:20;99678.19;;;-1.36;100.00
15971;BME280;59785;52.582;13.892;2022-11-21T07:56:46;99674.72;;;-1.37;100.00
15971;BME280;59785;52.582;13.892;2022-11-21T07:59:12;99674.63;;;-1.35;100.00
15971;BME280;59785;52.582;13.892;2022-11-21T08:01:38;99679.25;;;-1.39;100.00
15971;BME280;59785;52.582;13.892;2022-11-21T08:04:10;99685.97;;;-1.48;100.00
15971;BME280;59785;52.582;13.892;2022-11-21T08:06:36;99680.31;;;-1.42;100.00
15971;BME280;59785;52.582;13.892;2022-11-21T08:09:02;99683.97;;;-1.31;100.00
15971;BME280;59785;52.582;13.892;2022-11-21T08:11:28;99686.81;;;-1.22;100.00
15971;BME280;59785;52.582;13.892;2022-11-21T08:13:57;99694.38;;;-1.17;99.31
15971;BME280;59785;52.582;13.892;2022-11-21T08:16:24;99694.38;;;-1.17;98.80
15971;BME280;59785;52.582;13.892;2022-11-21T08:18:53;99695.66;;;-1.10;98.74
15971;BME280;59785;52.582;13.892;2022-11-21T08:21:19;99701.84;;;-0.98;98.17
15971;BME280;59785;52.582;13.892;2022-11-21T08:23:45;99700.28;;;-1.01;98.17
15971;BME280;59785;52.582;13.892;2022-11-21T08:26:11;99694.50;;;-0.93;97.99
15971;BME280;59785;52.582;13.892;2022-11-21T08:28:37;99695.88;;;-1.00;98.14
15971;BME280;59785;52.582;13.892;2022-11-21T08:31:04;99695.47;;;-1.07;98.32
15971;BME280;59785;52.582;13.892;2022-11-21T08:33:31;99706.28;;;-0.98;98.25
15971;BME280;59785;52.582;13.892;2022-11-21T08:35:57;99692.50;;;-1.02;98.64
15971;BME280;59785;52.582;13.892;2022-11-21T08:38:24;99698.28;;;-0.97;98.30
15971;BME280;59785;52.582;13.892;2022-11-21T08:40:50;99701.97;;;-1.00;98.55
15971;BME280;59785;52.582;13.892;2022-11-21T08:43:42;99700.78;;;-0.95;98.86
15971;BME280;59785;52.582;13.892;2022-11-21T08:46:08;99702.59;;;-0.96;98.61
15971;BME280;59785;52.582;13.892;2022-11-21T08:48:34;99708.38;;;-0.91;98.63
15971;BME280;59785;52.582;13.892;2022-11-21T08:51:00;99716.91;;;-0.87;97.75
15971;BME280;59785;52.582;13.892;2022-11-21T08:53:27;99715.09;;;-0.87;97.55
15971;BME280;59785;52.582;13.892;2022-11-21T08:55:53;99724.91;;;-0.89;97.69
15971;BME280;59785;52.582;13.892;2022-11-21T08:58:19;99720.88;;;-1.07;97.78
15971;BME280;59785;52.582;13.892;2022-11-21T09:00:45;99724.06;;;-1.02;98.26
15971;BME280;59785;52.582;13.892;2022-11-21T09:03:11;99729.09;;;-0.99;98.23
15971;BME280;59785;52.582;13.892;2022-11-21T09:05:42;99727.31;;;-0.98;98.87
15971;BME280;59785;52.582;13.892;2022-11-21T09:08:08;99729.31;;;-0.89;98.35
15971;BME280;59785;52.582;13.892;2022-11-21T09:10:35;99736.06;;;-0.85;98.26
15971;BME280;59785;52.582;13.892;2022-11-21T09:13:01;99729.09;;;-0.73;98.34
15971;BME280;59785;52.582;13.892;2022-11-21T09:15:27;99733.19;;;-0.69;97.12
15971;BME280;59785;52.582;13.892;2022-11-21T09:18:12;99739.81;;;-0.64;96.53
15971;BME280;59785;52.582;13.892;2022-11-21T09:20:41;99742.31;;;-0.49;96.62
15971;BME280;59785;52.582;13.892;2022-11-21T09:23:10;99754.72;;;-0.38;96.03
15971;BME280;59785;52.582;13.892;2022-11-21T09:25:37;99746.94;;;-0.27;95.81
15971;BME280;59785;52.582;13.892;2022-11-21T09:28:04;99754.31;;;-0.08;95.64
15971;BME280;59785;52.582;13.892;2022-11-21T09:30:31;99757.41;;;-0.14;94.95
15971;BME280;59785;52.582;13.892;2022-11-21T09:33:04;99760.84;;;-0.01;93.94
15971;BME280;59785;52.582;13.892;2022-11-21T09:35:31;99757.00;;;0.16;93.32
15971;BME280;59785;52.582;13.892;2022-11-21T09:37:58;99755.16;;;0.29;92.40
15971;BME280;59785;52.582;13.892;2022-11-21T09:40:24;99763.34;;;0.37;91.33
15971;BME280;59785;52.582;13.892;2022-11-21T09:43:25;99760.34;;;0.42;90.50
15971;BME280;59785;52.582;13.892;2022-11-21T09:46:18;99760.00;;;0.47;90.33
15971;BME280;59785;52.582;13.892;2022-11-21T09:48:52;99760.00;;;0.47;89.84
15971;BME280;59785;52.582;13.892;2022-11-21T09:51:20;99753.97;;;0.33;90.01
15971;BME280;59785;52.582;13.892;2022-11-21T09:54:14;99758.66;;;0.17;90.42
15971;BME280;59785;52.582;13.892;2022-11-21T09:56:42;99751.50;;;0.19;91.10
15971;BME280;59785;52.582;13.892;2022-11-21T09:59:27;99752.00;;;0.00;91.64
15971;BME280;59785;52.582;13.892;2022-11-21T10:01:56;99759.91;;;-0.37;92.62
15971;BME280;59785;52.582;13.892;2022-11-21T10:04:23;99758.94;;;-0.49;95.40
15971;BME280;59785;52.582;13.892;2022-11-21T10:07:06;99754.25;;;-0.20;95.18
15971;BME280;59785;52.582;13.892;2022-11-21T10:10:07;99754.44;;;-0.10;93.59
15971;BME280;59785;52.582;13.892;2022-11-21T10:12:46;99758.41;;;-0.04;93.26
15971;BME280;59785;52.582;13.892;2022-11-21T10:15:28;99753.28;;;-0.06;92.83
15971;BME280;59785;52.582;13.892;2022-11-21T10:21:10;99766.66;;;0.15;92.89
15971;BME280;59785;52.582;13.892;2022-11-21T10:29:13;99783.34;;;0.40;90.55
15971;BME280;59785;52.582;13.892;2022-11-21T10:31:43;99778.34;;;0.24;89.62
15971;BME280;59785;52.582;13.892;2022-11-21T10:34:12;99778.38;;;0.11;90.57
15971;BME280;59785;52.582;13.892;2022-11-21T10:36:43;99786.91;;;0.15;90.63
15971;BME280;59785;52.582;13.892;2022-11-21T10:39:27;99792.81;;;-0.18;91.09
15971;BME280;59785;52.582;13.892;2022-11-21T10:42:03;99788.50;;;-0.32;92.40
15971;BME280;59785;52.582;13.892;2022-11-21T10:44:30;99795.44;;;-0.31;93.09
15971;BME280;59785;52.582;13.892;2022-11-21T10:50:00;99793.88;;;-0.34;92.95
15971;BME280;59785;52.582;13.892;2022-11-21T10:52:33;99803.66;;;-0.49;93.60
15971;BME280;59785;52.582;13.892;2022-11-21T10:57:36;99806.59;;;-0.28;93.91
15971;BME280;59785;52.582;13.892;2022-11-21T11:02:36;99811.97;;;-0.29;92.77
15971;BME280;59785;52.582;13.892;2022-11-21T11:05:19;99817.06;;;-0.52;94.51
15971;BME280;59785;52.582;13.892;2022-11-21T11:08:06;99816.00;;;-0.49;94.75
15971;BME280;59785;52.582;13.892;2022-11-21T11:10:41;99819.47;;;-0.74;95.02
15971;BME280;59785;52.582;13.892;2022-11-21T11:13:19;99822.59;;;-0.82;95.77
15971;BME280;59785;52.582;13.892;2022-11-21T11:16:16;99825.44;;;-0.98;97.16
15971;BME280;59785;52.582;13.892;2022-11-21T11:18:52;99826.72;;;-0.91;97.71
15971;BME280;59785;52.582;13.892;2022-11-21T11:21:21;99832.81;;;-0.90;97.78
15971;BME280;59785;52.582;13.892;2022-11-21T11:23:49;99817.34;;;-0.95;97.95
15971;BME280;59785;52.582;13.892;2022-11-21T11:26:27;99825.00;;;-1.05;98.74
15971;BME280;59785;52.582;13.892;2022-11-21T11:29:08;99817.75;;;-1.01;99.30
15971;BME280;59785;52.582;13.892;2022-11-21T11:31:56;99816.09;;;-0.89;99.60
15971;BME280;59785;52.582;13.892;2022-11-21T11:37:26;99820.41;;;-0.75;100.00
15971;BME280;59785;52.582;13.892;2022-11-21T11:40:06;99818.72;;;-0.76;98.81
15971;BME280;59785;52.582;13.892;2022-11-21T11:48:38;99815.78;;;-0.85;99.02
15971;BME280;59785;52.582;13.892;2022-11-21T11:51:36;99816.31;;;-0.67;98.99
15971;BME280;59785;52.582;13.892;2022-11-21T11:54:13;99822.94;;;-0.61;98.33
15971;BME280;59785;52.582;13.892;2022-11-21T11:56:41;99819.16;;;-0.44;98.54
15971;BME280;59785;52.582;13.892;2022-11-21T11:59:20;99817.91;;;-0.38;97.42
15971;BME280;59785;52.582;13.892;2022-11-21T12:01:52;99819.66;;;-0.39;95.69
15971;BME280;59785;52.582;13.892;2022-11-21T12:04:22;99816.72;;;-0.47;95.36
15971;BME280;59785;52.582;13.892;2022-11-21T12:07:01;99819.78;;;-0.66;96.33
15971;BME280;59785;52.582;13.892;2022-11-21T12:09:58;99827.78;;;-0.68;97.20
15971;BME280;59785;52.582;13.892;2022-11-21T12:12:35;99822.94;;;-0.61;97.01
15971;BME280;59785;52.582;13.892;2022-11-21T12:15:19;99824.22;;;-0.54;97.39
15971;BME280;59785;52.582;13.892;2022-11-21T12:20:54;99827.16;;;-0.46;96.47
15971;BME280;59785;52.582;13.892;2022-11-21T12:23:30;99826.81;;;-0.41;95.51
15971;BME280;59785;52.582;13.892;2022-11-21T12:28:38;99823.47;;;-0.69;96.48
15971;BME280;59785;52.582;13.892;2022-11-21T12:31:19;99820.13;;;-0.58;95.81
15971;BME280;59785;52.582;13.892;2022-11-21T12:34:18;99819.47;;;-0.74;95.13
15971;BME280;59785;52.582;13.892;2022-11-21T12:36:52;99812.63;;;-0.77;95.48
15971;BME280;59785;52.582;13.892;2022-11-21T12:42:22;99818.28;;;-1.09;96.95
15971;BME280;59785;52.582;13.892;2022-11-21T12:45:29;99813.34;;;-1.01;97.49
15971;BME280;59785;52.582;13.892;2022-11-21T12:48:36;99811.97;;;-1.06;97.51
15971;BME280;59785;52.582;13.892;2022-11-21T12:55:02;99818.00;;;-1.31;99.91
15971;BME280;59785;52.582;13.892;2022-11-21T12:58:04;99812.56;;;-1.28;99.85
15971;BME280;59785;52.582;13.892;2022-11-21T13:00:40;99808.66;;;-1.23;98.95
15971;BME280;59785;52.582;13.892;2022-11-21T13:03:27;99813.81;;;-1.21;98.36
15971;BME280;59785;52.582;13.892;2022-11-21T13:05:56;99818.28;;;-1.09;98.48
15971;BME280;59785;52.582;13.892;2022-11-21T13:08:25;99818.47;;;-1.12;97.43
15971;BME280;59785;52.582;13.892;2022-11-21T13:14:19;99826.84;;;-1.20;97.43
15971;BME280;59785;52.582;13.892;2022-11-21T13:17:22;99829.81;;;-1.11;97.35
15971;BME280;59785;52.582;13.892;2022-11-21T13:20:26;99833.19;;;-1.09;96.93
15971;BME280;59785;52.582;13.892;2022-11-21T13:22:56;99823.81;;;-1.26;95.87
15971;BME280;59785;52.582;13.892;2022-11-21T13:30:51;99814.03;;;-1.11;96.59
15971;BME280;59785;52.582;13.892;2022-11-21T13:36:01;99810.03;;;-1.30;96.33
15971;BME280;59785;52.582;13.892;2022-11-21T13:38:27;99813.78;;;-1.34;96.37
15971;BME280;59785;52.582;13.892;2022-11-21T13:40:53;99810.44;;;-1.23;96.70
15971;BME280;59785;52.582;13.892;2022-11-21T13:43:37;99809.63;;;-1.24;96.99
15971;BME280;59785;52.582;13.892;2022-11-21T13:46:03;99807.84;;;-1.10;96.52
15971;BME280;59785;52.582;13.892;2022-11-21T13:51:02;99800.47;;;-1.18;95.92
15971;BME280;59785;52.582;13.892;2022-11-21T13:57:19;99805.03;;;-0.94;95.72
15971;BME280;59785;52.582;13.892;2022-11-21T14:05:56;99810.19;;;-0.93;94.41
15971;BME280;59785;52.582;13.892;2022-11-21T14:08:25;99811.78;;;-0.77;94.25
15971;BME280;59785;52.582;13.892;2022-11-21T14:10:54;99813.03;;;-0.70;93.71
15971;BME280;59785;52.582;13.892;2022-11-21T14:13:27;99811.59;;;-0.62;94.01
15971;BME280;59785;52.582;13.892;2022-11-21T14:18:42;99810.63;;;-0.48;92.82
15971;BME280;59785;52.582;13.892;2022-11-21T14:21:21;99807.16;;;-0.48;92.28
15971;BME280;59785;52.582;13.892;2022-11-21T14:24:00;99810.19;;;-0.42;91.45
15971;BME280;59785;52.582;13.892;2022-11-21T14:26:41;99800.19;;;-0.49;90.68
15971;BME280;59785;52.582;13.892;2022-11-21T14:29:16;99805.03;;;-0.43;90.30
15971;BME280;59785;52.582;13.892;2022-11-21T14:31:44;99806.84;;;-0.44;90.20
15971;BME280;59785;52.582;13.892;2022-11-21T14:34:12;99800.41;;;-0.40;90.20
15971;BME280;59785;52.582;13.892;2022-11-21T14:36:44;99793.16;;;-0.36;90.45
15971;BME280;59785;52.582;13.892;2022-11-21T14:39:15;99793.69;;;-0.44;90.03
15971;BME280;59785;52.582;13.892;2022-11-21T14:42:03;99790.13;;;-0.43;90.82
15971;BME280;59785;52.582;13.892;2022-11-21T14:44:30;99795.25;;;-0.41;91.39
15971;BME280;59785;52.582;13.892;2022-11-21T14:47:12;99795.44;;;-0.31;91.59
15971;BME280;59785;52.582;13.892;2022-11-21T14:49:49;99791.97;;;-0.32;91.68
15971;BME280;59785;52.582;13.892;2022-11-21T14:52:19;99784.59;;;-0.27;91.49
15971;BME280;59785;52.582;13.892;2022-11-21T14:54:49;99790.38;;;-0.22;91.22
15971;BME280;59785;52.582;13.892;2022-11-21T14:57:39;99787.97;;;-0.25;91.23
15971;BME280;59785;52.582;13.892;2022-11-21T15:00:08;99774.91;;;-0.26;91.36
15971;BME280;59785;52.582;13.892;2022-11-21T15:02:57;99773.25;;;-0.27;91.28
15971;BME280;59785;52.582;13.892;2022-11-21T15:05:31;99779.09;;;-0.24;91.27
15971;BME280;59785;52.582;13.892;2022-11-21T15:08:22;99770.63;;;-0.27;91.01
15971;BME280;59785;52.582;13.892;2022-11-21T15:11:09;99766.28;;;-0.28;91.32
15971;BME280;59785;52.582;13.892;2022-11-21T15:13:36;99770.47;;;-0.26;90.77
15971;BME280;59785;52.582;13.892;2022-11-21T15:16:22;99768.63;;;-0.36;89.80
15971;BME280;59785;52.582;13.892;2022-11-21T15:18:49;99770.63;;;-0.40;90.64
15971;BME280;59785;52.582;13.892;2022-11-21T15:21:15;99765.47;;;-0.42;90.65
15971;BME280;59785;52.582;13.892;2022-11-21T15:23:41;99763.25;;;-0.48;91.46
15971;BME280;59785;52.582;13.892;2022-11-21T15:26:41;99772.53;;;-0.42;92.26
15971;BME280;59785;52.582;13.892;2022-11-21T15:29:17;99773.06;;;-0.37;92.00
15971;BME280;59785;52.582;13.892;2022-11-21T15:31:45;99774.72;;;-0.36;92.43
15971;BME280;59785;52.582;13.892;2022-11-21T15:34:24;99779.97;;;-0.23;91.55
15971;BME280;59785;52.582;13.892;2022-11-21T15:37:16;99790.50;;;-0.23;91.09
15971;BME280;59785;52.582;13.892;2022-11-21T15:39:44;99790.59;;;-0.25;90.40
15971;BME280;59785;52.582;13.892;2022-11-21T15:47:45;99777.25;;;-0.34;90.59
15971;BME280;59785;52.582;13.892;2022-11-21T15:50:12;99789.56;;;-0.35;91.21
15971;BME280;59785;52.582;13.892;2022-11-21T15:52:45;99778.72;;;-0.30;90.65
15971;BME280;59785;52.582;13.892;2022-11-21T15:55:24;99779.88;;;-0.34;90.61
15971;BME280;59785;52.582;13.892;2022-11-21T15:57:50;99784.19;;;-0.33;90.81
15971;BME280;59785;52.582;13.892;2022-11-21T16:00:17;99780.50;;;-0.31;90.51
15971;BME280;59785;52.582;13.892;2022-11-21T16:02:43;99782.41;;;-0.33;90.64
15971;BME280;59785;52.582;13.892;2022-11-21T16:05:11;99793.03;;;-0.34;89.96
15971;BME280;59785;52.582;13.892;2022-11-21T16:07:37;99795.78;;;-0.36;89.88
15971;BME280;59785;52.582;13.892;2022-11-21T16:10:04;99794.94;;;-0.36;89.84
15971;BME280;59785;52.582;13.892;2022-11-21T16:12:30;99797.88;;;-0.41;89.88
15971;BME280;59785;52.582;13.892;2022-11-21T16:14:56;99789.69;;;-0.49;89.85
15971;BME280;59785;52.582;13.892;2022-11-21T16:17:22;99787.88;;;-0.49;90.74
15971;BME280;59785;52.582;13.892;2022-11-21T16:19:48;99790.75;;;-0.52;90.47
15971;BME280;59785;52.582;13.892;2022-11-21T16:22:14;99779.25;;;-0.51;90.36
15971;BME280;59785;52.582;13.892;2022-11-21T16:24:41;99785.47;;;-0.52;90.46
15971;BME280;59785;52.582;13.892;2022-11-21T16:27:07;99784.84;;;-0.55;90.98
15971;BME280;59785;52.582;13.892;2022-11-21T16:29:33;99780.22;;;-0.52;91.62
15971;BME280;59785;52.582;13.892;2022-11-21T16:32:00;99781.88;;;-0.51;91.85
15971;BME280;59785;52.582;13.892;2022-11-21T16:34:26;99786.53;;;-0.54;91.70
15971;BME280;59785;52.582;13.892;2022-11-21T16:36:53;99783.16;;;-0.56;92.29
15971;BME280;59785;52.582;13.892;2022-11-21T16:39:19;99783.38;;;-0.60;92.31
15971;BME280;59785;52.582;13.892;2022-11-21T16:41:46;99781.28;;;-0.54;92.39
15971;BME280;59785;52.582;13.892;2022-11-21T16:44:15;99786.53;;;-0.54;92.70
15971;BME280;59785;52.582;13.892;2022-11-21T16:46:43;99793.56;;;-0.55;93.00
15971;BME280;59785;52.582;13.892;2022-11-21T16:49:10;99795.28;;;-0.54;93.08
15971;BME280;59785;52.582;13.892;2022-11-21T16:51:36;99795.03;;;-0.51;93.00
15971;BME280;59785;52.582;13.892;2022-11-21T16:54:02;99787.78;;;-0.47;92.96
15971;BME280;59785;52.582;13.892;2022-11-21T16:56:33;99782.94;;;-0.53;92.86
15971;BME280;59785;52.582;13.892;2022-11-21T16:58:59;99792.09;;;-0.59;92.96
15971;BME280;59785;52.582;13.892;2022-11-21T17:01:26;99786.53;;;-0.54;93.23
15971;BME280;59785;52.582;13.892;2022-11-21T17:03:53;99790.31;;;-0.46;93.52
15971;BME280;59785;52.582;13.892;2022-11-21T17:06:22;99787.47;;;-0.43;93.68
15971;BME280;59785;52.582;13.892;2022-11-21T17:08:49;99783.97;;;-0.43;93.78
15971;BME280;59785;52.582;13.892;2022-11-21T17:11:18;99789.78;;;-0.51;93.60
15971;BME280;59785;52.582;13.892;2022-11-21T17:13:46;99783.81;;;-0.66;94.10
15971;BME280;59785;52.582;13.892;2022-11-21T17:16:13;99781.19;;;-0.66;94.84
15971;BME280;59785;52.582;13.892;2022-11-21T17:18:39;99787.91;;;-0.62;94.64
15971;BME280;59785;52.582;13.892;2022-11-21T17:21:08;99778.34;;;-0.75;94.87
15971;BME280;59785;52.582;13.892;2022-11-21T17:23:36;99779.28;;;-0.89;95.24
15971;BME280;59785;52.582;13.892;2022-11-21T17:26:07;99764.84;;;-1.09;95.91
15971;BME280;59785;52.582;13.892;2022-11-21T17:28:34;99771.78;;;-1.08;96.77
15971;BME280;59785;52.582;13.892;2022-11-21T17:31:08;99771.78;;;-0.95;97.53
15971;BME280;59785;52.582;13.892;2022-11-21T17:33:34;99756.84;;;-1.08;97.15
15971;BME280;59785;52.582;13.892;2022-11-21T17:36:02;99763.78;;;-1.20;97.88
15971;BME280;59785;52.582;13.892;2022-11-21T17:38:29;99773.88;;;-1.13;98.23
15971;BME280;59785;52.582;13.892;2022-11-21T17:40:59;99765.66;;;-1.22;97.91
15971;BME280;59785;52.582;13.892;2022-11-21T17:43:27;99767.13;;;-1.30;97.59
15971;BME280;59785;52.582;13.892;2022-11-21T17:46:01;99756.25;;;-1.51;97.84
15971;BME280;59785;52.582;13.892;2022-11-21T17:48:35;99755.41;;;-1.79;98.71
15971;BME280;59785;52.582;13.892;2022-11-21T17:51:04;99756.78;;;-2.01;99.84
15971;BME280;59785;52.582;13.892;2022-11-21T17:53:35;99751.03;;;-2.20;100.00
15971;BME280;59785;52.582;13.892;2022-11-21T17:56:03;99746.94;;;-2.39;100.00
15971;BME280;59785;52.582;13.892;2022-11-21T17:58:30;99752.50;;;-2.43;100.00
15971;BME280;59785;52.582;13.892;2022-11-21T18:00:58;99752.19;;;-2.39;100.00
15971;BME280;59785;52.582;13.892;2022-11-21T18:03:25;99736.38;;;-2.51;100.00
15971;BME280;59785;52.582;13.892;2022-11-21T18:06:08;99748.66;;;-2.66;100.00
15971;BME280;59785;52.582;13.892;2022-11-21T18:08:37;99750.34;;;-2.80;100.00
15971;BME280;59785;52.582;13.892;2022-11-21T18:11:05;99751.66;;;-2.87;100.00
15971;BME280;59785;52.582;13.892;2022-11-21T18:13:32;99748.44;;;-2.92;100.00
15971;BME280;59785;52.582;13.892;2022-11-21T18:16:00;99748.28;;;-2.89;100.00
15971;BME280;59785;52.582;13.892;2022-11-21T18:18:26;99748.66;;;-2.81;100.00
15971;BME280;59785;52.582;13.892;2022-11-21T18:20:53;99752.97;;;-2.80;100.00
15971;BME280;59785;52.582;13.892;2022-11-21T18:23:19;99748.19;;;-2.73;100.00
15971;BME280;59785;52.582;13.892;2022-11-21T18:25:45;99735.91;;;-2.58;100.00
15971;BME280;59785;52.582;13.892;2022-11-21T18:28:12;99730.84;;;-2.61;100.00
15971;BME280;59785;52.582;13.892;2022-11-21T18:30:38;99721.03;;;-2.58;100.00